sensor_id;sensor_type;location;lat;lon;timestamp;P1;durP1;ratioP1;P2;durP2;ratioP2
14858;SDS011;7521;51.700;6.874;2022-11-12T00:02:21;8.43;;;5.53;;
14858;SDS011;7521;51.700;6.874;2022-11-12T00:05:26;9.20;;;5.03;;
14858;SDS011;7521;51.700;6.874;2022-11-12T00:08:31;8.90;;;5.13;;
14858;SDS011;7521;51.700;6.874;2022-11-12T00:11:36;11.25;;;5.40;;
14858;SDS011;7521;51.700;6.874;2022-11-12T00:14:42;8.93;;;5.07;;
14858;SDS011;7521;51.700;6.874;2022-11-12T00:17:47;7.47;;;4.80;;
14858;SDS011;7521;51.700;6.874;2022-11-12T00:20:52;7.57;;;4.90;;
14858;SDS011;7521;51.700;6.874;2022-11-12T00:23:57;7.40;;;4.72;;
14858;SDS011;7521;51.700;6.874;2022-11-12T00:27:02;7.47;;;4.80;;
14858;SDS011;7521;51.700;6.874;2022-11-12T00:30:08;6.93;;;5.13;;
14858;SDS011;7521;51.700;6.874;2022-11-12T00:33:13;6.40;;;4.60;;
14858;SDS011;7521;51.700;6.874;2022-11-12T00:36:18;6.88;;;4.22;;
14858;SDS011;7521;51.700;6.874;2022-11-12T00:39:23;7.20;;;4.50;;
14858;SDS011;7521;51.700;6.874;2022-11-12T00:42:28;8.13;;;4.60;;
14858;SDS011;7521;51.700;6.874;2022-11-12T00:45:34;8.20;;;5.23;;
14858;SDS011;7521;51.700;6.874;2022-11-12T00:48:39;7.65;;;4.90;;
14858;SDS011;7521;51.700;6.874;2022-11-12T00:51:44;10.32;;;5.05;;
14858;SDS011;7521;51.700;6.874;2022-11-12T00:54:49;8.87;;;4.83;;
14858;SDS011;7521;51.700;6.874;2022-11-12T00:57:56;8.67;;;4.87;;
14858;SDS011;7521;51.700;6.874;2022-11-12T01:01:20;8.00;;;4.43;;
14858;SDS011;7521;51.700;6.874;2022-11-12T01:04:25;5.73;;;4.43;;
14858;SDS011;7521;51.700;6.874;2022-11-12T01:07:30;8.57;;;4.73;;
14858;SDS011;7521;51.700;6.874;2022-11-12T01:10:36;9.63;;;5.23;;
14858;SDS011;7521;51.700;6.874;2022-11-12T01:13:41;9.30;;;5.35;;
14858;SDS011;7521;51.700;6.874;2022-11-12T01:16:47;8.10;;;5.40;;
14858;SDS011;7521;51.700;6.874;2022-11-12T01:19:52;7.55;;;4.82;;
14858;SDS011;7521;51.700;6.874;2022-11-12T01:22:57;7.78;;;4.75;;
14858;SDS011;7521;51.700;6.874;2022-11-12T01:26:13;7.45;;;4.93;;
14858;SDS011;7521;51.700;6.874;2022-11-12T01:29:18;8.83;;;5.20;;
14858;SDS011;7521;51.700;6.874;2022-11-12T01:32:23;9.15;;;5.40;;
14858;SDS011;7521;51.700;6.874;2022-11-12T01:35:29;11.10;;;4.80;;
14858;SDS011;7521;51.700;6.874;2022-11-12T01:38:34;11.20;;;5.78;;
14858;SDS011;7521;51.700;6.874;2022-11-12T01:41:40;9.13;;;5.77;;
14858;SDS011;7521;51.700;6.874;2022-11-12T01:44:45;11.33;;;7.30;;
14858;SDS011;7521;51.700;6.874;2022-11-12T01:47:51;12.43;;;8.40;;
14858;SDS011;7521;51.700;6.874;2022-11-12T01:50:56;12.87;;;7.93;;
14858;SDS011;7521;51.700;6.874;2022-11-12T01:54:02;9.97;;;6.07;;
14858;SDS011;7521;51.700;6.874;2022-11-12T01:57:09;11.73;;;6.90;;
14858;SDS011;7521;51.700;6.874;2022-11-12T02:00:15;10.23;;;7.03;;
14858;SDS011;7521;51.700;6.874;2022-11-12T02:03:21;7.53;;;6.07;;
14858;SDS011;7521;51.700;6.874;2022-11-12T02:06:27;8.13;;;5.40;;
14858;SDS011;7521;51.700;6.874;2022-11-12T02:09:32;6.87;;;5.00;;
14858;SDS011;7521;51.700;6.874;2022-11-12T02:12:38;9.57;;;5.00;;
14858;SDS011;7521;51.700;6.874;2022-11-12T02:16:02;7.23;;;4.73;;
14858;SDS011;7521;51.700;6.874;2022-11-12T02:19:10;7.33;;;4.67;;
14858;SDS011;7521;51.700;6.874;2022-11-12T02:22:15;6.03;;;4.33;;
14858;SDS011;7521;51.700;6.874;2022-11-12T02:25:21;7.43;;;5.25;;
14858;SDS011;7521;51.700;6.874;2022-11-12T02:28:27;7.73;;;4.67;;
14858;SDS011;7521;51.700;6.874;2022-11-12T02:31:34;6.13;;;4.20;;
14858;SDS011;7521;51.700;6.874;2022-11-12T02:34:39;6.30;;;4.43;;
14858;SDS011;7521;51.700;6.874;2022-11-12T02:37:44;5.53;;;4.10;;
14858;SDS011;7521;51.700;6.874;2022-11-12T02:40:50;8.63;;;5.18;;
14858;SDS011;7521;51.700;6.874;2022-11-12T02:43:55;6.07;;;4.63;;
14858;SDS011;7521;51.700;6.874;2022-11-12T02:47:00;10.90;;;5.18;;
14858;SDS011;7521;51.700;6.874;2022-11-12T02:50:06;6.10;;;4.15;;
14858;SDS011;7521;51.700;6.874;2022-11-12T02:53:11;7.67;;;5.00;;
14858;SDS011;7521;51.700;6.874;2022-11-12T02:56:16;7.17;;;4.67;;
14858;SDS011;7521;51.700;6.874;2022-11-12T02:59:21;8.18;;;5.00;;
14858;SDS011;7521;51.700;6.874;2022-11-12T03:02:26;6.72;;;4.68;;
14858;SDS011;7521;51.700;6.874;2022-11-12T03:05:32;7.70;;;4.90;;
14858;SDS011;7521;51.700;6.874;2022-11-12T03:08:37;4.93;;;4.27;;
14858;SDS011;7521;51.700;6.874;2022-11-12T03:11:43;8.02;;;4.60;;
14858;SDS011;7521;51.700;6.874;2022-11-12T03:14:48;6.53;;;4.95;;
14858;SDS011;7521;51.700;6.874;2022-11-12T03:17:53;8.25;;;4.85;;
14858;SDS011;7521;51.700;6.874;2022-11-12T03:20:58;7.37;;;5.20;;
14858;SDS011;7521;51.700;6.874;2022-11-12T03:24:03;10.60;;;5.53;;
14858;SDS011;7521;51.700;6.874;2022-11-12T03:27:09;7.93;;;5.50;;
14858;SDS011;7521;51.700;6.874;2022-11-12T03:30:14;10.98;;;5.70;;
14858;SDS011;7521;51.700;6.874;2022-11-12T03:33:19;8.52;;;5.57;;
14858;SDS011;7521;51.700;6.874;2022-11-12T03:36:24;8.35;;;5.57;;
14858;SDS011;7521;51.700;6.874;2022-11-12T03:39:29;8.55;;;5.68;;
14858;SDS011;7521;51.700;6.874;2022-11-12T03:42:35;9.82;;;6.15;;
14858;SDS011;7521;51.700;6.874;2022-11-12T03:45:40;9.00;;;6.20;;
14858;SDS011;7521;51.700;6.874;2022-11-12T03:48:45;7.85;;;5.57;;
14858;SDS011;7521;51.700;6.874;2022-11-12T03:51:50;8.93;;;6.35;;
14858;SDS011;7521;51.700;6.874;2022-11-12T03:54:55;8.50;;;5.60;;
14858;SDS011;7521;51.700;6.874;2022-11-12T03:58:00;8.45;;;5.90;;
14858;SDS011;7521;51.700;6.874;2022-11-12T04:01:06;9.30;;;5.83;;
14858;SDS011;7521;51.700;6.874;2022-11-12T04:04:11;6.60;;;5.18;;
14858;SDS011;7521;51.700;6.874;2022-11-12T04:07:16;8.83;;;5.63;;
14858;SDS011;7521;51.700;6.874;2022-11-12T04:10:40;10.50;;;5.87;;
14858;SDS011;7521;51.700;6.874;2022-11-12T04:13:45;9.57;;;5.88;;
14858;SDS011;7521;51.700;6.874;2022-11-12T04:16:51;10.07;;;6.30;;
14858;SDS011;7521;51.700;6.874;2022-11-12T04:20:15;9.07;;;5.87;;
14858;SDS011;7521;51.700;6.874;2022-11-12T04:23:39;7.87;;;5.77;;
14858;SDS011;7521;51.700;6.874;2022-11-12T04:26:44;8.60;;;6.00;;
14858;SDS011;7521;51.700;6.874;2022-11-12T04:29:50;9.80;;;5.73;;
14858;SDS011;7521;51.700;6.874;2022-11-12T04:33:14;6.17;;;4.63;;
14858;SDS011;7521;51.700;6.874;2022-11-12T04:36:19;9.25;;;5.68;;
14858;SDS011;7521;51.700;6.874;2022-11-12T04:39:25;7.30;;;5.43;;
14858;SDS011;7521;51.700;6.874;2022-11-12T04:42:30;7.17;;;5.17;;
14858;SDS011;7521;51.700;6.874;2022-11-12T04:45:58;8.83;;;5.63;;
14858;SDS011;7521;51.700;6.874;2022-11-12T04:49:04;10.20;;;6.03;;
14858;SDS011;7521;51.700;6.874;2022-11-12T04:52:09;7.28;;;5.38;;
14858;SDS011;7521;51.700;6.874;2022-11-12T04:55:14;8.80;;;5.63;;
14858;SDS011;7521;51.700;6.874;2022-11-12T04:58:20;6.70;;;5.10;;
14858;SDS011;7521;51.700;6.874;2022-11-12T05:01:25;9.03;;;5.40;;
14858;SDS011;7521;51.700;6.874;2022-11-12T05:04:30;9.63;;;5.28;;
14858;SDS011;7521;51.700;6.874;2022-11-12T05:07:35;6.47;;;5.13;;
14858;SDS011;7521;51.700;6.874;2022-11-12T05:10:41;11.30;;;4.97;;
14858;SDS011;7521;51.700;6.874;2022-11-12T05:13:46;11.93;;;5.70;;
14858;SDS011;7521;51.700;6.874;2022-11-12T05:16:51;8.57;;;5.10;;
14858;SDS011;7521;51.700;6.874;2022-11-12T05:19:56;9.13;;;5.80;;
14858;SDS011;7521;51.700;6.874;2022-11-12T05:23:01;8.00;;;5.53;;
14858;SDS011;7521;51.700;6.874;2022-11-12T05:26:07;7.73;;;5.40;;
14858;SDS011;7521;51.700;6.874;2022-11-12T05:29:12;8.20;;;5.43;;
14858;SDS011;7521;51.700;6.874;2022-11-12T05:32:17;10.32;;;5.28;;
14858;SDS011;7521;51.700;6.874;2022-11-12T05:35:22;7.93;;;5.60;;
14858;SDS011;7521;51.700;6.874;2022-11-12T05:38:27;8.43;;;5.60;;
14858;SDS011;7521;51.700;6.874;2022-11-12T05:41:33;11.40;;;7.47;;
14858;SDS011;7521;51.700;6.874;2022-11-12T05:44:38;18.73;;;12.90;;
14858;SDS011;7521;51.700;6.874;2022-11-12T05:47:43;16.23;;;9.38;;
14858;SDS011;7521;51.700;6.874;2022-11-12T05:50:48;9.32;;;5.72;;
14858;SDS011;7521;51.700;6.874;2022-11-12T05:53:54;6.90;;;5.43;;
14858;SDS011;7521;51.700;6.874;2022-11-12T05:56:59;11.60;;;4.95;;
14858;SDS011;7521;51.700;6.874;2022-11-12T06:00:04;6.75;;;5.25;;
14858;SDS011;7521;51.700;6.874;2022-11-12T06:03:10;8.07;;;6.07;;
14858;SDS011;7521;51.700;6.874;2022-11-12T06:06:16;7.37;;;5.27;;
14858;SDS011;7521;51.700;6.874;2022-11-12T06:09:21;5.77;;;4.40;;
14858;SDS011;7521;51.700;6.874;2022-11-12T06:12:26;7.63;;;4.63;;
14858;SDS011;7521;51.700;6.874;2022-11-12T06:15:31;7.57;;;4.20;;
14858;SDS011;7521;51.700;6.874;2022-11-12T06:18:36;6.50;;;4.68;;
14858;SDS011;7521;51.700;6.874;2022-11-12T06:21:42;6.45;;;4.53;;
14858;SDS011;7521;51.700;6.874;2022-11-12T06:24:47;5.50;;;4.40;;
14858;SDS011;7521;51.700;6.874;2022-11-12T06:27:52;7.93;;;5.03;;
14858;SDS011;7521;51.700;6.874;2022-11-12T06:30:57;7.75;;;5.30;;
14858;SDS011;7521;51.700;6.874;2022-11-12T06:34:02;7.40;;;4.82;;
14858;SDS011;7521;51.700;6.874;2022-11-12T06:37:07;10.45;;;5.00;;
14858;SDS011;7521;51.700;6.874;2022-11-12T06:40:13;6.93;;;5.28;;
14858;SDS011;7521;51.700;6.874;2022-11-12T06:43:18;9.57;;;5.37;;
14858;SDS011;7521;51.700;6.874;2022-11-12T06:46:23;9.60;;;5.68;;
14858;SDS011;7521;51.700;6.874;2022-11-12T06:49:28;9.98;;;5.25;;
14858;SDS011;7521;51.700;6.874;2022-11-12T06:52:33;9.65;;;5.50;;
14858;SDS011;7521;51.700;6.874;2022-11-12T06:55:39;7.88;;;5.20;;
14858;SDS011;7521;51.700;6.874;2022-11-12T06:58:44;10.80;;;6.88;;
14858;SDS011;7521;51.700;6.874;2022-11-12T07:01:49;7.88;;;5.78;;
14858;SDS011;7521;51.700;6.874;2022-11-12T07:04:54;9.70;;;6.27;;
14858;SDS011;7521;51.700;6.874;2022-11-12T07:07:59;11.00;;;7.00;;
14858;SDS011;7521;51.700;6.874;2022-11-12T07:11:05;9.88;;;6.32;;
14858;SDS011;7521;51.700;6.874;2022-11-12T07:14:10;8.53;;;5.93;;
14858;SDS011;7521;51.700;6.874;2022-11-12T07:17:15;8.88;;;5.97;;
14858;SDS011;7521;51.700;6.874;2022-11-12T07:20:21;10.18;;;6.18;;
14858;SDS011;7521;51.700;6.874;2022-11-12T07:23:26;10.60;;;6.40;;
14858;SDS011;7521;51.700;6.874;2022-11-12T07:26:31;8.80;;;5.87;;
14858;SDS011;7521;51.700;6.874;2022-11-12T07:29:37;8.33;;;5.63;;
14858;SDS011;7521;51.700;6.874;2022-11-12T07:32:42;11.80;;;6.13;;
14858;SDS011;7521;51.700;6.874;2022-11-12T07:35:47;9.32;;;5.63;;
14858;SDS011;7521;51.700;6.874;2022-11-12T07:38:52;8.50;;;5.85;;
14858;SDS011;7521;51.700;6.874;2022-11-12T07:41:58;9.23;;;6.70;;
14858;SDS011;7521;51.700;6.874;2022-11-12T07:45:03;9.77;;;6.95;;
14858;SDS011;7521;51.700;6.874;2022-11-12T07:48:08;9.37;;;7.17;;
14858;SDS011;7521;51.700;6.874;2022-11-12T07:51:17;9.45;;;6.72;;
14858;SDS011;7521;51.700;6.874;2022-11-12T07:54:23;12.07;;;8.30;;
14858;SDS011;7521;51.700;6.874;2022-11-12T07:57:28;13.25;;;8.73;;
14858;SDS011;7521;51.700;6.874;2022-11-12T08:00:35;14.67;;;9.27;;
14858;SDS011;7521;51.700;6.874;2022-11-12T08:03:41;17.47;;;9.23;;
14858;SDS011;7521;51.700;6.874;2022-11-12T08:06:46;15.17;;;9.23;;
14858;SDS011;7521;51.700;6.874;2022-11-12T08:09:51;14.97;;;9.77;;
14858;SDS011;7521;51.700;6.874;2022-11-12T08:12:57;11.93;;;8.53;;
14858;SDS011;7521;51.700;6.874;2022-11-12T08:16:02;16.33;;;8.97;;
14858;SDS011;7521;51.700;6.874;2022-11-12T08:19:07;11.23;;;7.67;;
14858;SDS011;7521;51.700;6.874;2022-11-12T08:22:13;13.90;;;8.45;;
14858;SDS011;7521;51.700;6.874;2022-11-12T08:25:18;12.73;;;8.15;;
14858;SDS011;7521;51.700;6.874;2022-11-12T08:28:23;13.05;;;8.48;;
14858;SDS011;7521;51.700;6.874;2022-11-12T08:31:28;14.03;;;8.63;;
14858;SDS011;7521;51.700;6.874;2022-11-12T08:34:33;12.32;;;9.00;;
14858;SDS011;7521;51.700;6.874;2022-11-12T08:37:40;13.87;;;8.90;;
14858;SDS011;7521;51.700;6.874;2022-11-12T08:40:45;11.90;;;7.88;;
14858;SDS011;7521;51.700;6.874;2022-11-12T08:43:50;15.57;;;8.10;;
14858;SDS011;7521;51.700;6.874;2022-11-12T08:46:55;15.47;;;8.43;;
14858;SDS011;7521;51.700;6.874;2022-11-12T08:50:00;15.27;;;9.55;;
14858;SDS011;7521;51.700;6.874;2022-11-12T08:53:06;12.00;;;9.77;;
14858;SDS011;7521;51.700;6.874;2022-11-12T08:56:12;14.97;;;11.10;;
14858;SDS011;7521;51.700;6.874;2022-11-12T08:59:17;17.05;;;9.98;;
14858;SDS011;7521;51.700;6.874;2022-11-12T09:02:22;13.90;;;9.63;;
14858;SDS011;7521;51.700;6.874;2022-11-12T09:05:27;13.45;;;9.25;;
14858;SDS011;7521;51.700;6.874;2022-11-12T09:08:33;16.90;;;9.67;;
14858;SDS011;7521;51.700;6.874;2022-11-12T09:11:39;13.67;;;9.13;;
14858;SDS011;7521;51.700;6.874;2022-11-12T09:14:44;12.95;;;9.00;;
14858;SDS011;7521;51.700;6.874;2022-11-12T09:17:59;11.60;;;8.27;;
14858;SDS011;7521;51.700;6.874;2022-11-12T09:21:06;9.67;;;8.53;;
14858;SDS011;7521;51.700;6.874;2022-11-12T09:24:11;9.07;;;7.60;;
14858;SDS011;7521;51.700;6.874;2022-11-12T09:27:16;13.37;;;9.10;;
14858;SDS011;7521;51.700;6.874;2022-11-12T09:30:22;15.30;;;9.27;;
14858;SDS011;7521;51.700;6.874;2022-11-12T09:33:31;12.90;;;9.23;;
14858;SDS011;7521;51.700;6.874;2022-11-12T09:36:37;15.43;;;11.70;;
14858;SDS011;7521;51.700;6.874;2022-11-12T09:39:42;13.47;;;10.30;;
14858;SDS011;7521;51.700;6.874;2022-11-12T09:42:49;14.88;;;10.23;;
14858;SDS011;7521;51.700;6.874;2022-11-12T09:45:57;10.63;;;9.30;;
14858;SDS011;7521;51.700;6.874;2022-11-12T09:52:11;11.43;;;8.80;;
14858;SDS011;7521;51.700;6.874;2022-11-12T09:55:23;13.37;;;8.40;;
14858;SDS011;7521;51.700;6.874;2022-11-12T09:58:29;10.90;;;7.73;;
14858;SDS011;7521;51.700;6.874;2022-11-12T10:01:49;9.60;;;7.20;;
14858;SDS011;7521;51.700;6.874;2022-11-12T10:05:00;7.80;;;5.90;;
14858;SDS011;7521;51.700;6.874;2022-11-12T10:08:24;12.77;;;7.20;;
14858;SDS011;7521;51.700;6.874;2022-11-12T10:15:09;7.97;;;6.03;;
14858;SDS011;7521;51.700;6.874;2022-11-12T10:24:53;9.23;;;5.93;;
14858;SDS011;7521;51.700;6.874;2022-11-12T10:28:00;9.80;;;6.60;;
14858;SDS011;7521;51.700;6.874;2022-11-12T10:31:16;8.43;;;6.10;;
14858;SDS011;7521;51.700;6.874;2022-11-12T10:34:22;7.23;;;5.43;;
14858;SDS011;7521;51.700;6.874;2022-11-12T10:37:50;8.97;;;6.17;;
14858;SDS011;7521;51.700;6.874;2022-11-12T10:40:53;6.57;;;5.33;;
14858;SDS011;7521;51.700;6.874;2022-11-12T10:44:02;7.20;;;5.32;;
14858;SDS011;7521;51.700;6.874;2022-11-12T10:50:35;9.97;;;6.13;;
14858;SDS011;7521;51.700;6.874;2022-11-12T10:53:41;6.60;;;4.93;;
14858;SDS011;7521;51.700;6.874;2022-11-12T10:56:46;9.63;;;5.50;;
14858;SDS011;7521;51.700;6.874;2022-11-12T11:03:20;6.90;;;5.00;;
14858;SDS011;7521;51.700;6.874;2022-11-12T11:06:26;6.07;;;4.37;;
14858;SDS011;7521;51.700;6.874;2022-11-12T11:09:31;5.37;;;4.23;;
14858;SDS011;7521;51.700;6.874;2022-11-12T11:12:37;5.80;;;4.50;;
14858;SDS011;7521;51.700;6.874;2022-11-12T11:15:55;5.72;;;4.43;;
14858;SDS011;7521;51.700;6.874;2022-11-12T11:19:02;6.57;;;3.90;;
14858;SDS011;7521;51.700;6.874;2022-11-12T11:22:11;7.80;;;4.60;;
14858;SDS011;7521;51.700;6.874;2022-11-12T11:25:20;5.40;;;4.43;;
14858;SDS011;7521;51.700;6.874;2022-11-12T11:28:32;6.77;;;4.07;;
14858;SDS011;7521;51.700;6.874;2022-11-12T11:31:48;5.50;;;4.30;;
14858;SDS011;7521;51.700;6.874;2022-11-12T11:38:11;7.50;;;5.20;;
14858;SDS011;7521;51.700;6.874;2022-11-12T11:44:46;7.67;;;4.90;;
14858;SDS011;7521;51.700;6.874;2022-11-12T11:48:05;8.10;;;5.90;;
14858;SDS011;7521;51.700;6.874;2022-11-12T12:08:01;6.37;;;4.83;;
14858;SDS011;7521;51.700;6.874;2022-11-12T12:11:51;6.67;;;4.87;;
14858;SDS011;7521;51.700;6.874;2022-11-12T12:14:40;6.20;;;4.83;;
14858;SDS011;7521;51.700;6.874;2022-11-12T12:17:50;7.97;;;5.73;;
14858;SDS011;7521;51.700;6.874;2022-11-12T12:21:05;9.30;;;5.50;;
14858;SDS011;7521;51.700;6.874;2022-11-12T12:24:21;6.50;;;4.53;;
14858;SDS011;7521;51.700;6.874;2022-11-12T12:27:31;5.63;;;4.10;;
14858;SDS011;7521;51.700;6.874;2022-11-12T12:30:43;7.17;;;4.67;;
14858;SDS011;7521;51.700;6.874;2022-11-12T12:33:54;7.80;;;4.87;;
14858;SDS011;7521;51.700;6.874;2022-11-12T12:40:40;7.30;;;5.07;;
14858;SDS011;7521;51.700;6.874;2022-11-12T12:43:51;6.57;;;5.00;;
14858;SDS011;7521;51.700;6.874;2022-11-12T12:46:57;6.70;;;4.60;;
14858;SDS011;7521;51.700;6.874;2022-11-12T12:50:06;10.57;;;5.20;;
14858;SDS011;7521;51.700;6.874;2022-11-12T12:53:29;7.77;;;4.97;;
14858;SDS011;7521;51.700;6.874;2022-11-12T12:59:40;6.72;;;4.78;;
14858;SDS011;7521;51.700;6.874;2022-11-12T13:02:45;5.97;;;4.28;;
14858;SDS011;7521;51.700;6.874;2022-11-12T13:06:04;6.70;;;4.67;;
14858;SDS011;7521;51.700;6.874;2022-11-12T13:12:18;8.27;;;4.37;;
14858;SDS011;7521;51.700;6.874;2022-11-12T13:15:40;8.00;;;4.60;;
14858;SDS011;7521;51.700;6.874;2022-11-12T13:25:31;5.67;;;4.53;;
14858;SDS011;7521;51.700;6.874;2022-11-12T13:28:36;5.00;;;3.97;;
14858;SDS011;7521;51.700;6.874;2022-11-12T13:38:35;7.23;;;4.97;;
14858;SDS011;7521;51.700;6.874;2022-11-12T13:41:41;6.87;;;4.97;;
14858;SDS011;7521;51.700;6.874;2022-11-12T13:45:05;6.13;;;5.03;;
14858;SDS011;7521;51.700;6.874;2022-11-12T13:48:12;7.00;;;5.10;;
14858;SDS011;7521;51.700;6.874;2022-11-12T13:51:21;8.33;;;5.47;;
14858;SDS011;7521;51.700;6.874;2022-11-12T13:54:29;7.27;;;5.70;;
14858;SDS011;7521;51.700;6.874;2022-11-12T13:57:35;7.73;;;6.10;;
14858;SDS011;7521;51.700;6.874;2022-11-12T14:00:40;7.97;;;5.88;;
14858;SDS011;7521;51.700;6.874;2022-11-12T14:03:54;7.70;;;5.70;;
14858;SDS011;7521;51.700;6.874;2022-11-12T14:13:54;12.63;;;7.53;;
14858;SDS011;7521;51.700;6.874;2022-11-12T14:17:21;13.40;;;10.33;;
14858;SDS011;7521;51.700;6.874;2022-11-12T14:20:34;15.20;;;10.50;;
14858;SDS011;7521;51.700;6.874;2022-11-12T14:23:46;18.37;;;13.20;;
14858;SDS011;7521;51.700;6.874;2022-11-12T14:26:52;15.37;;;10.50;;
14858;SDS011;7521;51.700;6.874;2022-11-12T14:30:30;28.13;;;16.85;;
14858;SDS011;7521;51.700;6.874;2022-11-12T14:33:29;13.83;;;10.50;;
14858;SDS011;7521;51.700;6.874;2022-11-12T14:36:34;11.03;;;8.33;;
14858;SDS011;7521;51.700;6.874;2022-11-12T14:39:41;14.23;;;8.00;;
14858;SDS011;7521;51.700;6.874;2022-11-12T14:42:47;8.17;;;6.53;;
14858;SDS011;7521;51.700;6.874;2022-11-12T14:45:53;10.53;;;6.73;;
14858;SDS011;7521;51.700;6.874;2022-11-12T14:49:02;7.83;;;5.40;;
14858;SDS011;7521;51.700;6.874;2022-11-12T14:52:10;8.23;;;5.60;;
14858;SDS011;7521;51.700;6.874;2022-11-12T14:55:19;8.47;;;6.43;;
14858;SDS011;7521;51.700;6.874;2022-11-12T14:58:25;8.97;;;5.97;;
14858;SDS011;7521;51.700;6.874;2022-11-12T15:01:33;8.00;;;5.23;;
14858;SDS011;7521;51.700;6.874;2022-11-12T15:08:10;5.87;;;4.20;;
14858;SDS011;7521;51.700;6.874;2022-11-12T15:14:27;6.87;;;4.50;;
14858;SDS011;7521;51.700;6.874;2022-11-12T15:17:33;7.33;;;3.90;;
14858;SDS011;7521;51.700;6.874;2022-11-12T15:20:39;5.40;;;3.80;;
14858;SDS011;7521;51.700;6.874;2022-11-12T15:23:48;6.03;;;3.50;;
14858;SDS011;7521;51.700;6.874;2022-11-12T15:26:54;8.93;;;3.90;;
14858;SDS011;7521;51.700;6.874;2022-11-12T15:30:12;8.47;;;4.57;;
14858;SDS011;7521;51.700;6.874;2022-11-12T15:33:20;8.77;;;5.03;;
14858;SDS011;7521;51.700;6.874;2022-11-12T15:36:26;5.90;;;3.90;;
14858;SDS011;7521;51.700;6.874;2022-11-12T15:39:31;7.07;;;4.75;;
14858;SDS011;7521;51.700;6.874;2022-11-12T15:42:39;8.23;;;5.63;;
14858;SDS011;7521;51.700;6.874;2022-11-12T15:45:49;20.07;;;13.63;;
14858;SDS011;7521;51.700;6.874;2022-11-12T15:48:54;20.33;;;9.30;;
14858;SDS011;7521;51.700;6.874;2022-11-12T15:51:59;26.58;;;17.33;;
14858;SDS011;7521;51.700;6.874;2022-11-12T15:55:05;17.83;;;10.75;;
14858;SDS011;7521;51.700;6.874;2022-11-12T15:58:14;14.37;;;9.97;;
14858;SDS011;7521;51.700;6.874;2022-11-12T16:01:21;16.30;;;8.40;;
14858;SDS011;7521;51.700;6.874;2022-11-12T16:04:26;13.70;;;8.10;;
14858;SDS011;7521;51.700;6.874;2022-11-12T16:07:31;12.10;;;7.43;;
14858;SDS011;7521;51.700;6.874;2022-11-12T16:10:37;10.15;;;7.05;;
14858;SDS011;7521;51.700;6.874;2022-11-12T16:13:43;13.90;;;8.77;;
14858;SDS011;7521;51.700;6.874;2022-11-12T16:16:48;11.00;;;8.77;;
14858;SDS011;7521;51.700;6.874;2022-11-12T16:19:53;13.07;;;8.10;;
14858;SDS011;7521;51.700;6.874;2022-11-12T16:22:58;12.18;;;7.80;;
14858;SDS011;7521;51.700;6.874;2022-11-12T16:26:05;8.27;;;6.53;;
14858;SDS011;7521;51.700;6.874;2022-11-12T16:29:11;5.67;;;4.50;;
14858;SDS011;7521;51.700;6.874;2022-11-12T16:32:17;7.50;;;4.53;;
14858;SDS011;7521;51.700;6.874;2022-11-12T16:35:23;8.13;;;4.80;;
14858;SDS011;7521;51.700;6.874;2022-11-12T16:38:28;6.50;;;4.20;;
14858;SDS011;7521;51.700;6.874;2022-11-12T16:41:33;9.73;;;7.30;;
14858;SDS011;7521;51.700;6.874;2022-11-12T16:44:38;8.18;;;5.72;;
14858;SDS011;7521;51.700;6.874;2022-11-12T16:47:47;6.83;;;5.80;;
14858;SDS011;7521;51.700;6.874;2022-11-12T16:50:56;7.83;;;4.60;;
14858;SDS011;7521;51.700;6.874;2022-11-12T16:54:03;9.03;;;4.67;;
14858;SDS011;7521;51.700;6.874;2022-11-12T16:57:09;8.53;;;4.30;;
14858;SDS011;7521;51.700;6.874;2022-11-12T17:00:17;5.40;;;4.50;;
14858;SDS011;7521;51.700;6.874;2022-11-12T17:03:22;5.87;;;4.07;;
14858;SDS011;7521;51.700;6.874;2022-11-12T17:06:34;6.53;;;4.57;;
14858;SDS011;7521;51.700;6.874;2022-11-12T17:09:40;6.67;;;4.10;;
14858;SDS011;7521;51.700;6.874;2022-11-12T17:12:47;7.63;;;5.27;;
14858;SDS011;7521;51.700;6.874;2022-11-12T17:15:55;7.30;;;5.27;;
14858;SDS011;7521;51.700;6.874;2022-11-12T17:19:02;9.17;;;6.13;;
14858;SDS011;7521;51.700;6.874;2022-11-12T17:22:07;14.10;;;6.47;;
14858;SDS011;7521;51.700;6.874;2022-11-12T17:25:12;13.30;;;9.13;;
14858;SDS011;7521;51.700;6.874;2022-11-12T17:28:17;10.25;;;7.15;;
14858;SDS011;7521;51.700;6.874;2022-11-12T17:31:22;8.95;;;6.80;;
14858;SDS011;7521;51.700;6.874;2022-11-12T17:34:28;8.27;;;6.40;;
14858;SDS011;7521;51.700;6.874;2022-11-12T17:37:33;6.87;;;5.33;;
14858;SDS011;7521;51.700;6.874;2022-11-12T17:40:38;7.53;;;5.40;;
14858;SDS011;7521;51.700;6.874;2022-11-12T17:43:43;7.47;;;5.65;;
14858;SDS011;7521;51.700;6.874;2022-11-12T17:46:48;9.33;;;6.17;;
14858;SDS011;7521;51.700;6.874;2022-11-12T17:49:54;9.50;;;6.40;;
14858;SDS011;7521;51.700;6.874;2022-11-12T17:52:59;24.00;;;15.30;;
14858;SDS011;7521;51.700;6.874;2022-11-12T17:56:04;17.17;;;13.02;;
14858;SDS011;7521;51.700;6.874;2022-11-12T17:59:10;26.97;;;17.23;;
14858;SDS011;7521;51.700;6.874;2022-11-12T18:02:15;20.40;;;11.53;;
14858;SDS011;7521;51.700;6.874;2022-11-12T18:05:20;8.87;;;4.87;;
14858;SDS011;7521;51.700;6.874;2022-11-12T18:08:26;9.87;;;8.73;;
14858;SDS011;7521;51.700;6.874;2022-11-12T18:11:36;6.85;;;4.35;;
14858;SDS011;7521;51.700;6.874;2022-11-12T18:14:44;7.67;;;5.20;;
14858;SDS011;7521;51.700;6.874;2022-11-12T18:17:49;8.00;;;5.10;;
14858;SDS011;7521;51.700;6.874;2022-11-12T18:20:54;9.07;;;5.60;;
14858;SDS011;7521;51.700;6.874;2022-11-12T18:24:00;13.17;;;5.93;;
14858;SDS011;7521;51.700;6.874;2022-11-12T18:27:05;9.10;;;5.70;;
14858;SDS011;7521;51.700;6.874;2022-11-12T18:30:10;11.07;;;5.70;;
14858;SDS011;7521;51.700;6.874;2022-11-12T18:33:16;10.10;;;5.93;;
14858;SDS011;7521;51.700;6.874;2022-11-12T18:36:22;7.57;;;6.35;;
14858;SDS011;7521;51.700;6.874;2022-11-12T18:39:30;12.23;;;6.83;;
14858;SDS011;7521;51.700;6.874;2022-11-12T18:42:36;9.90;;;6.23;;
14858;SDS011;7521;51.700;6.874;2022-11-12T18:45:41;10.40;;;7.25;;
14858;SDS011;7521;51.700;6.874;2022-11-12T18:48:46;9.00;;;5.97;;
14858;SDS011;7521;51.700;6.874;2022-11-12T18:51:51;10.90;;;6.90;;
14858;SDS011;7521;51.700;6.874;2022-11-12T18:54:57;10.40;;;7.70;;
14858;SDS011;7521;51.700;6.874;2022-11-12T18:58:02;14.23;;;10.50;;
14858;SDS011;7521;51.700;6.874;2022-11-12T19:01:12;10.93;;;8.30;;
14858;SDS011;7521;51.700;6.874;2022-11-12T19:04:19;12.97;;;7.40;;
14858;SDS011;7521;51.700;6.874;2022-11-12T19:07:24;10.57;;;7.10;;
14858;SDS011;7521;51.700;6.874;2022-11-12T19:10:30;9.43;;;7.00;;
14858;SDS011;7521;51.700;6.874;2022-11-12T19:13:35;13.68;;;9.38;;
14858;SDS011;7521;51.700;6.874;2022-11-12T19:16:40;17.23;;;9.83;;
14858;SDS011;7521;51.700;6.874;2022-11-12T19:19:48;25.60;;;20.57;;
14858;SDS011;7521;51.700;6.874;2022-11-12T19:22:54;13.20;;;8.50;;
14858;SDS011;7521;51.700;6.874;2022-11-12T19:26:00;10.80;;;7.00;;
14858;SDS011;7521;51.700;6.874;2022-11-12T19:29:05;14.33;;;6.70;;
14858;SDS011;7521;51.700;6.874;2022-11-12T19:32:10;23.07;;;14.67;;
14858;SDS011;7521;51.700;6.874;2022-11-12T19:35:16;22.20;;;13.30;;
14858;SDS011;7521;51.700;6.874;2022-11-12T19:38:22;11.32;;;8.30;;
14858;SDS011;7521;51.700;6.874;2022-11-12T19:41:27;12.40;;;7.18;;
14858;SDS011;7521;51.700;6.874;2022-11-12T19:44:32;9.20;;;7.47;;
14858;SDS011;7521;51.700;6.874;2022-11-12T19:47:37;13.02;;;7.95;;
14858;SDS011;7521;51.700;6.874;2022-11-12T19:50:42;11.95;;;6.63;;
14858;SDS011;7521;51.700;6.874;2022-11-12T19:53:48;8.80;;;6.70;;
14858;SDS011;7521;51.700;6.874;2022-11-12T19:56:53;10.93;;;7.43;;
14858;SDS011;7521;51.700;6.874;2022-11-12T19:59:58;9.40;;;7.35;;
14858;SDS011;7521;51.700;6.874;2022-11-12T20:03:03;10.30;;;7.60;;
14858;SDS011;7521;51.700;6.874;2022-11-12T20:06:10;16.02;;;9.07;;
14858;SDS011;7521;51.700;6.874;2022-11-12T20:09:15;10.50;;;8.40;;
14858;SDS011;7521;51.700;6.874;2022-11-12T20:12:20;15.83;;;9.90;;
14858;SDS011;7521;51.700;6.874;2022-11-12T20:15:26;12.20;;;8.47;;
14858;SDS011;7521;51.700;6.874;2022-11-12T20:18:31;12.95;;;7.63;;